createdAt,value
2023-05-23T00:00:15.665Z,12.14
2023-05-23T00:02:47.153Z,12.11
2023-05-23T00:05:18.088Z,12.04
2023-05-23T00:07:47.879Z,12.05
2023-05-23T00:10:16.798Z,12.01
2023-05-23T00:12:48.369Z,12.02
2023-05-23T00:15:17.713Z,11.99
2023-05-23T00:17:47.093Z,11.97
2023-05-23T00:20:17.093Z,11.90
2023-05-23T00:22:48.522Z,11.92
2023-05-23T00:25:22.236Z,11.94
2023-05-23T00:27:51.231Z,11.91
2023-05-23T00:30:20.476Z,11.88
2023-05-23T00:32:49.496Z,11.91
2023-05-23T00:35:18.428Z,11.92
2023-05-23T00:37:47.148Z,11.91
2023-05-23T00:40:16.120Z,11.88
2023-05-23T00:42:46.624Z,11.81
2023-05-23T00:45:16.014Z,11.83
2023-05-23T00:47:45.470Z,11.81
2023-05-23T00:50:15.902Z,11.80
2023-05-23T00:52:45.939Z,11.72
2023-05-23T00:55:14.879Z,11.72
2023-05-23T00:57:45.943Z,11.74
2023-05-23T01:00:15.501Z,11.77
2023-05-23T01:02:47.375Z,11.70
2023-05-23T01:05:17.944Z,11.68
2023-05-23T01:07:47.735Z,11.64
2023-05-23T01:10:17.150Z,11.62
2023-05-23T01:13:00.087Z,11.58
2023-05-23T01:15:32.598Z,11.53
2023-05-23T01:18:04.771Z,11.51
2023-05-23T01:20:37.464Z,11.45
2023-05-23T01:23:38.182Z,11.49
2023-05-23T01:26:19.990Z,11.45
2023-05-23T01:28:53.350Z,11.38
2023-05-23T01:31:23.771Z,11.32
2023-05-23T01:33:53.568Z,11.24
2023-05-23T01:36:22.629Z,11.19
2023-05-23T01:38:54.082Z,11.20
2023-05-23T01:41:23.129Z,11.16
2023-05-23T01:43:53.128Z,11.10
2023-05-23T01:46:22.112Z,11.14
2023-05-23T01:48:51.367Z,11.09
2023-05-23T01:51:20.586Z,11.08
2023-05-23T01:53:50.640Z,11.05
2023-05-23T01:56:20.006Z,11.03
2023-05-23T01:58:48.901Z,11.02
2023-05-23T02:01:19.599Z,11.00
2023-05-23T02:03:48.742Z,10.97
2023-05-23T02:06:17.731Z,10.97
2023-05-23T02:08:48.980Z,11.01
2023-05-23T02:11:17.977Z,11.01
2023-05-23T02:13:46.446Z,10.99
2023-05-23T02:16:15.920Z,11.02
2023-05-23T02:18:47.304Z,11.05
2023-05-23T02:21:16.354Z,10.98
2023-05-23T02:23:45.307Z,10.95
2023-05-23T02:26:14.304Z,10.96
2023-05-23T02:28:45.519Z,10.94
2023-05-23T02:31:17.514Z,10.92
2023-05-23T02:33:47.999Z,10.85
2023-05-23T02:36:16.824Z,10.89
2023-05-23T02:38:46.853Z,10.86
2023-05-23T02:41:15.859Z,10.88
2023-05-23T02:43:47.284Z,10.92
2023-05-23T02:46:18.009Z,10.89
2023-05-23T02:48:48.567Z,10.92
2023-05-23T02:51:17.330Z,10.92
2023-05-23T02:53:46.350Z,10.90
2023-05-23T02:56:15.892Z,10.93
2023-05-23T02:58:44.821Z,10.98
2023-05-23T03:01:13.856Z,11.03
2023-05-23T03:03:42.957Z,11.04
2023-05-23T03:06:14.900Z,11.12
2023-05-23T03:08:44.210Z,11.20
2023-05-23T03:11:13.165Z,11.25
2023-05-23T03:13:41.746Z,11.25
2023-05-23T03:16:12.048Z,11.38
2023-05-23T03:18:42.275Z,11.52
2023-05-23T03:21:12.764Z,11.54
2023-05-23T03:23:41.436Z,11.63
2023-05-23T03:26:10.645Z,11.68
2023-05-23T03:28:39.347Z,11.79
2023-05-23T03:31:08.316Z,11.90
2023-05-23T03:33:39.700Z,12.00
2023-05-23T03:36:09.751Z,12.09
2023-05-23T03:38:40.234Z,12.20
2023-05-23T03:41:09.452Z,12.21
2023-05-23T03:43:38.044Z,12.21
2023-05-23T03:46:07.147Z,12.34
2023-05-23T03:48:36.198Z,12.38
2023-05-23T03:51:05.537Z,12.52
2023-05-23T03:53:36.429Z,12.65
2023-05-23T03:56:08.216Z,12.67
2023-05-23T03:58:36.818Z,12.78
2023-05-23T04:01:11.385Z,12.75
2023-05-23T04:03:40.503Z,12.74
2023-05-23T04:06:11.589Z,12.80
2023-05-23T04:08:43.777Z,12.93
2023-05-23T04:11:15.907Z,13.09
2023-05-23T04:13:47.328Z,12.80
2023-05-23T04:16:16.843Z,13.01
2023-05-23T04:18:47.665Z,13.31
2023-05-23T04:21:16.981Z,13.43
2023-05-23T04:23:54.633Z,13.65
2023-05-23T04:26:25.411Z,13.85
2023-05-23T04:28:55.428Z,13.96
2023-05-23T04:31:24.563Z,13.99
2023-05-23T04:33:53.982Z,14.02
2023-05-23T04:36:23.728Z,13.61
2023-05-23T04:38:56.065Z,13.84
2023-05-23T04:41:26.583Z,14.17
2023-05-23T04:44:18.423Z,14.41
2023-05-23T04:47:10.235Z,14.61
2023-05-23T04:50:00.558Z,14.86
2023-05-23T04:52:30.936Z,14.90
2023-05-23T04:55:00.665Z,14.96
2023-05-23T04:57:31.671Z,14.88
2023-05-23T05:00:01.498Z,14.93
2023-05-23T05:02:35.409Z,14.79
2023-05-23T05:05:05.496Z,14.72
2023-05-23T05:07:36.597Z,14.41
2023-05-23T05:10:07.054Z,14.83
2023-05-23T05:12:38.410Z,14.96
2023-05-23T05:15:08.726Z,14.87
2023-05-23T05:17:39.404Z,15.23
2023-05-23T05:20:12.648Z,15.52
2023-05-23T05:22:41.599Z,15.83
2023-05-23T05:25:13.229Z,16.07
2023-05-23T05:27:44.012Z,16.31
2023-05-23T05:30:15.820Z,16.21
2023-05-23T05:32:52.918Z,16.44
2023-05-23T05:35:21.960Z,16.71
2023-05-23T05:37:50.581Z,16.91
2023-05-23T05:40:20.654Z,16.16
2023-05-23T05:42:51.048Z,16.60
2023-05-23T05:45:20.740Z,16.85
2023-05-23T05:47:52.143Z,16.09
2023-05-23T05:50:23.043Z,16.62
2023-05-23T05:52:51.658Z,16.90
2023-05-23T05:55:20.623Z,16.63
2023-05-23T05:57:55.497Z,16.19
2023-05-23T06:00:25.914Z,16.46
2023-05-23T06:02:58.495Z,16.17
2023-05-23T06:05:39.562Z,16.49
2023-05-23T06:08:08.783Z,16.42
2023-05-23T06:10:39.318Z,17.01
2023-05-23T06:13:09.985Z,16.42
2023-05-23T06:15:40.671Z,16.07
2023-05-23T06:18:10.124Z,15.83
2023-05-23T06:20:39.347Z,16.11
2023-05-23T06:23:12.940Z,16.38
2023-05-23T06:25:42.076Z,16.73
2023-05-23T06:28:12.544Z,16.43
2023-05-23T06:30:42.828Z,17.03
2023-05-23T06:33:12.457Z,17.45
2023-05-23T06:35:41.515Z,17.83
2023-05-23T06:38:10.685Z,18.12
2023-05-23T06:40:39.573Z,17.85
2023-05-23T06:43:08.969Z,17.90
2023-05-23T06:45:48.853Z,18.12
2023-05-23T06:48:18.038Z,18.22
2023-05-23T06:50:47.987Z,18.02
2023-05-23T06:53:19.372Z,17.25
2023-05-23T06:55:50.348Z,16.85
2023-05-23T06:58:25.307Z,17.61
2023-05-23T07:00:57.003Z,17.46
2023-05-23T07:03:32.904Z,17.74
2023-05-23T07:06:06.673Z,17.38
2023-05-23T07:08:36.181Z,17.77
2023-05-23T07:11:07.342Z,18.62
2023-05-23T07:13:41.785Z,18.89
2023-05-23T07:16:17.371Z,18.88
2023-05-23T07:19:05.676Z,19.05
2023-05-23T07:21:38.630Z,19.34
2023-05-23T07:24:08.935Z,19.47
2023-05-23T07:26:38.036Z,19.31
2023-05-23T07:29:08.164Z,19.13
2023-05-23T07:31:38.412Z,19.34
2023-05-23T07:34:07.670Z,19.60
2023-05-23T07:36:59.673Z,19.99
2023-05-23T07:39:33.280Z,20.46
2023-05-23T07:42:03.323Z,20.26
2023-05-23T07:44:32.378Z,20.33
2023-05-23T07:47:03.080Z,20.23
2023-05-23T07:49:32.027Z,19.38
2023-05-23T07:52:01.189Z,19.39
2023-05-23T07:54:30.506Z,20.18
2023-05-23T07:57:01.658Z,20.05
2023-05-23T07:59:31.385Z,20.10
2023-05-23T08:02:00.428Z,19.92
2023-05-23T08:04:32.640Z,20.25
2023-05-23T08:07:05.657Z,20.63
2023-05-23T08:09:49.237Z,19.57
2023-05-23T08:12:21.200Z,19.72
2023-05-23T08:14:54.328Z,20.96
2023-05-23T08:17:30.863Z,21.56
2023-05-23T08:20:02.388Z,21.84
2023-05-23T08:22:32.700Z,20.48
2023-05-23T08:25:03.110Z,20.97
2023-05-23T08:27:34.066Z,21.32
2023-05-23T08:30:10.012Z,21.98
2023-05-23T08:32:40.104Z,21.18
2023-05-23T08:35:11.020Z,22.05
2023-05-23T08:37:43.200Z,21.28
2023-05-23T08:40:16.351Z,21.20
2023-05-23T08:42:49.857Z,21.14
2023-05-23T08:45:20.029Z,22.14
2023-05-23T08:47:49.702Z,21.39
2023-05-23T08:50:23.299Z,20.76
2023-05-23T08:52:56.989Z,19.98
2023-05-23T08:55:27.979Z,20.77
2023-05-23T08:58:00.439Z,20.51
2023-05-23T09:00:39.399Z,20.03
2023-05-23T09:03:08.687Z,20.59
2023-05-23T09:05:58.391Z,21.72
2023-05-23T09:08:28.218Z,22.37
2023-05-23T09:11:02.953Z,23.29
2023-05-23T09:13:35.061Z,23.21
2023-05-23T09:16:09.043Z,23.86
2023-05-23T09:18:46.348Z,23.91
2023-05-23T09:21:19.569Z,21.63
2023-05-23T09:23:58.796Z,21.98
2023-05-23T09:26:29.917Z,22.55
2023-05-23T09:29:00.404Z,23.47
2023-05-23T09:31:30.046Z,24.24
2023-05-23T09:34:00.290Z,24.53
2023-05-23T09:36:33.836Z,24.09
2023-05-23T09:39:05.835Z,25.47
2023-05-23T09:41:36.036Z,26.46
2023-05-23T09:44:10.565Z,24.06
2023-05-23T09:46:39.615Z,21.85
2023-05-23T09:49:19.350Z,22.13
2023-05-23T09:52:00.890Z,21.78
2023-05-23T09:54:30.069Z,21.62
2023-05-23T09:57:01.808Z,22.96
2023-05-23T09:59:33.433Z,24.06
2023-05-23T10:02:04.448Z,23.43
2023-05-23T10:04:33.360Z,21.55
2023-05-23T10:07:07.065Z,23.80
2023-05-23T10:09:39.785Z,24.14
2023-05-23T10:12:44.653Z,24.60
2023-05-23T10:15:17.110Z,23.28
2023-05-23T10:17:59.645Z,22.77
2023-05-23T10:20:33.222Z,24.68
2023-05-23T10:23:05.554Z,27.49
2023-05-23T10:25:35.951Z,27.51
2023-05-23T10:28:06.083Z,26.78
2023-05-23T10:30:36.158Z,28.69
2023-05-23T10:33:06.649Z,32.61
2023-05-23T10:35:49.777Z,33.19
2023-05-23T10:38:30.156Z,33.53
2023-05-23T10:41:07.088Z,33.30
2023-05-23T10:43:57.223Z,34.64
2023-05-23T10:46:53.115Z,34.61
2023-05-23T10:49:22.805Z,31.58
2023-05-23T10:51:52.697Z,33.75
2023-05-23T10:54:23.438Z,35.78
2023-05-23T10:57:04.542Z,35.63
2023-05-23T10:59:33.667Z,33.61
2023-05-23T11:02:03.160Z,32.31
2023-05-23T11:04:31.851Z,30.44
2023-05-23T11:07:01.052Z,27.59
2023-05-23T11:09:31.677Z,28.40
2023-05-23T11:12:05.484Z,28.93
2023-05-23T11:14:55.872Z,27.08
2023-05-23T11:17:50.652Z,28.14
2023-05-23T11:20:23.570Z,30.30
2023-05-23T11:22:56.498Z,30.65
2023-05-23T11:25:41.625Z,28.59
2023-05-23T11:28:11.275Z,28.82
2023-05-23T11:30:41.163Z,31.52
2023-05-23T11:33:13.645Z,33.08
2023-05-23T11:35:43.986Z,31.25
2023-05-23T11:38:13.380Z,33.53
2023-05-23T11:40:45.107Z,36.22
2023-05-23T11:43:16.743Z,38.83
2023-05-23T11:45:47.142Z,38.03
2023-05-23T11:48:18.139Z,35.20
2023-05-23T11:50:49.253Z,34.66
2023-05-23T11:53:19.306Z,34.52
2023-05-23T11:55:53.850Z,35.38
2023-05-23T11:58:23.804Z,32.51
2023-05-23T12:00:55.212Z,36.34
2023-05-23T12:03:24.862Z,35.76
2023-05-23T12:05:53.823Z,36.06
2023-05-23T12:08:23.346Z,36.40
2023-05-23T12:10:54.356Z,37.91
2023-05-23T12:13:26.443Z,39.70
2023-05-23T12:15:56.881Z,40.50
2023-05-23T12:18:30.571Z,41.55
2023-05-23T12:21:03.281Z,38.39
2023-05-23T12:23:34.700Z,31.27
2023-05-23T12:26:08.375Z,34.03
2023-05-23T12:28:38.200Z,32.26
2023-05-23T12:31:12.399Z,29.50
2023-05-23T12:33:44.061Z,30.01
2023-05-23T12:36:13.487Z,29.74
2023-05-23T12:38:45.507Z,32.23
2023-05-23T12:41:19.910Z,33.07
2023-05-23T12:43:53.015Z,33.23
2023-05-23T12:46:23.036Z,31.82
2023-05-23T12:48:52.975Z,28.80
2023-05-23T12:51:21.924Z,27.90
2023-05-23T12:53:51.144Z,27.40
2023-05-23T12:56:22.541Z,26.92
2023-05-23T12:58:52.345Z,26.58
2023-05-23T13:01:22.101Z,25.31
2023-05-23T13:03:51.145Z,26.35
2023-05-23T13:06:20.369Z,28.21
2023-05-23T13:08:50.940Z,31.05
2023-05-23T13:11:22.691Z,32.97
2023-05-23T13:13:51.768Z,32.24
2023-05-23T13:16:20.962Z,29.59
2023-05-23T13:18:50.032Z,30.71
2023-05-23T13:21:19.059Z,29.83
2023-05-23T13:23:48.113Z,28.79
2023-05-23T13:26:17.418Z,29.12
2023-05-23T13:28:47.668Z,31.53
2023-05-23T13:31:16.826Z,33.28
2023-05-23T13:33:45.981Z,32.73
2023-05-23T13:36:15.066Z,31.39
2023-05-23T13:38:44.224Z,31.82
2023-05-23T13:41:13.295Z,32.37
2023-05-23T13:43:41.938Z,33.28
2023-05-23T13:46:13.383Z,32.71
2023-05-23T13:48:42.431Z,30.99
2023-05-23T13:51:11.547Z,31.67
2023-05-23T13:53:40.713Z,32.41
2023-05-23T13:56:10.272Z,33.10
2023-05-23T13:58:38.992Z,32.01
2023-05-23T14:01:08.059Z,33.06
2023-05-23T14:03:38.810Z,32.08
2023-05-23T14:06:08.202Z,30.18
2023-05-23T14:08:37.272Z,31.65
2023-05-23T14:11:06.427Z,33.53
2023-05-23T14:13:35.009Z,33.06
2023-05-23T14:16:04.502Z,31.70
2023-05-23T14:18:34.181Z,32.69
2023-05-23T14:21:04.446Z,34.13
2023-05-23T14:23:33.478Z,34.85
2023-05-23T14:26:02.552Z,34.93
2023-05-23T14:28:31.728Z,34.67
2023-05-23T14:31:00.800Z,33.45
2023-05-23T14:33:30.159Z,33.33
2023-05-23T14:35:59.801Z,32.74
2023-05-23T14:38:30.832Z,32.15
2023-05-23T14:41:00.161Z,32.25
2023-05-23T14:43:28.962Z,31.96
2023-05-23T14:45:58.210Z,30.85
2023-05-23T14:48:27.377Z,32.35
2023-05-23T14:50:56.564Z,33.43
2023-05-23T14:53:25.867Z,34.03
2023-05-23T14:55:56.970Z,34.20
2023-05-23T14:58:26.301Z,34.74
2023-05-23T15:00:55.349Z,34.12
2023-05-23T15:03:24.370Z,33.68
2023-05-23T15:05:53.377Z,34.53
2023-05-23T15:08:22.444Z,29.44
2023-05-23T15:10:51.598Z,28.76
2023-05-23T15:13:22.114Z,29.44
2023-05-23T15:15:51.227Z,30.98
2023-05-23T15:18:31.723Z,30.83
2023-05-23T15:21:08.498Z,29.35
2023-05-23T15:23:37.634Z,31.35
2023-05-23T15:26:06.852Z,33.38
2023-05-23T15:28:36.969Z,34.51
2023-05-23T15:31:06.347Z,34.38
2023-05-23T15:33:35.159Z,34.98
2023-05-23T15:36:04.646Z,35.62
2023-05-23T15:38:33.452Z,36.16
2023-05-23T15:41:03.576Z,36.13
2023-05-23T15:43:32.880Z,33.74
2023-05-23T15:46:06.143Z,32.16
2023-05-23T15:48:35.282Z,33.58
2023-05-23T15:51:04.368Z,32.25
2023-05-23T15:53:40.081Z,28.23
2023-05-23T15:56:09.565Z,29.22
2023-05-23T15:58:38.269Z,30.63
2023-05-23T16:01:09.935Z,31.11
2023-05-23T16:03:39.186Z,32.13
2023-05-23T16:06:08.495Z,32.44
2023-05-23T16:08:37.460Z,29.40
2023-05-23T16:11:06.733Z,26.47
2023-05-23T16:13:35.939Z,26.36
2023-05-23T16:16:05.576Z,26.47
2023-05-23T16:18:36.277Z,26.15
2023-05-23T16:21:05.901Z,26.75
2023-05-23T16:23:35.102Z,24.25
2023-05-23T16:26:04.317Z,25.10
2023-05-23T16:28:33.062Z,25.38
2023-05-23T16:31:02.064Z,26.25
2023-05-23T16:33:31.337Z,25.86
2023-05-23T16:36:01.839Z,25.49
2023-05-23T16:38:31.041Z,25.02
2023-05-23T16:41:00.268Z,25.13
2023-05-23T16:43:29.004Z,24.81
2023-05-23T16:45:58.092Z,23.97
2023-05-23T16:48:27.513Z,23.91
2023-05-23T16:50:56.745Z,23.21
2023-05-23T16:53:27.500Z,23.46
2023-05-23T16:55:56.233Z,22.92
2023-05-23T16:58:25.449Z,22.85
2023-05-23T17:00:54.664Z,22.83
2023-05-23T17:03:24.031Z,22.91
2023-05-23T17:05:53.431Z,22.67
2023-05-23T17:08:22.447Z,22.15
2023-05-23T17:10:52.605Z,22.38
2023-05-23T17:13:21.686Z,22.10
2023-05-23T17:15:50.676Z,22.24
2023-05-23T17:18:19.786Z,22.46
2023-05-23T17:20:48.860Z,22.38
2023-05-23T17:23:19.268Z,22.54
2023-05-23T17:25:47.831Z,22.26
2023-05-23T17:28:18.368Z,21.90
2023-05-23T17:30:47.696Z,21.31
2023-05-23T17:33:17.476Z,21.50
2023-05-23T17:35:46.915Z,21.68
2023-05-23T17:38:16.077Z,21.60
2023-05-23T17:40:44.918Z,21.56
2023-05-23T17:43:14.589Z,21.20
2023-05-23T17:45:45.269Z,20.92
2023-05-23T17:48:16.056Z,21.28
2023-05-23T17:50:46.044Z,21.31
2023-05-23T17:53:16.100Z,21.19
2023-05-23T17:55:45.223Z,21.17
2023-05-23T17:58:14.405Z,21.17
2023-05-23T18:00:45.042Z,21.11
2023-05-23T18:03:14.403Z,21.01
2023-05-23T18:05:43.561Z,20.90
2023-05-23T18:08:12.566Z,20.73
2023-05-23T18:10:41.423Z,20.62
2023-05-23T18:13:10.928Z,20.63
2023-05-23T18:15:40.259Z,20.55
2023-05-23T18:18:10.744Z,20.38
2023-05-23T18:20:40.197Z,20.28
2023-05-23T18:23:09.715Z,20.20
2023-05-23T18:25:38.482Z,20.15
2023-05-23T18:28:07.590Z,20.14
2023-05-23T18:30:36.745Z,20.03
2023-05-23T18:33:06.202Z,19.52
2023-05-23T18:35:36.991Z,19.42
2023-05-23T18:38:06.166Z,19.79
2023-05-23T18:40:34.909Z,19.83
2023-05-23T18:43:04.127Z,19.81
2023-05-23T18:45:33.199Z,19.84
2023-05-23T18:48:02.501Z,19.79
2023-05-23T18:50:31.694Z,19.70
2023-05-23T18:53:02.475Z,19.56
2023-05-23T18:55:30.910Z,19.52
2023-05-23T18:58:00.642Z,19.45
2023-05-23T19:00:29.716Z,19.53
2023-05-23T19:02:58.734Z,19.52
2023-05-23T19:05:29.480Z,19.65
2023-05-23T19:07:58.312Z,19.55
2023-05-23T19:10:28.825Z,19.66
2023-05-23T19:12:57.859Z,19.68
2023-05-23T19:15:26.858Z,19.66
2023-05-23T19:17:55.991Z,19.65
2023-05-23T19:20:25.105Z,19.50
2023-05-23T19:22:53.955Z,19.40
2023-05-23T19:25:23.373Z,19.31
2023-05-23T19:27:53.998Z,19.21
2023-05-23T19:30:23.944Z,19.18
2023-05-23T19:32:53.230Z,19.02
2023-05-23T19:35:22.626Z,18.99
2023-05-23T19:37:51.385Z,19.12
2023-05-23T19:40:21.713Z,19.02
2023-05-23T19:42:50.721Z,18.92
2023-05-23T19:45:21.400Z,18.80
2023-05-23T19:47:50.814Z,18.73
2023-05-23T19:50:22.032Z,18.76
2023-05-23T19:52:50.724Z,18.78
2023-05-23T19:55:19.672Z,18.67
2023-05-23T19:57:48.907Z,18.67
2023-05-23T20:00:18.550Z,18.54
2023-05-23T20:02:49.313Z,18.52
2023-05-23T20:05:18.552Z,18.58
2023-05-23T20:07:47.335Z,18.54
2023-05-23T20:10:16.604Z,18.53
2023-05-23T20:12:45.585Z,18.42
2023-05-23T20:15:15.984Z,18.53
2023-05-23T20:17:48.434Z,18.55
2023-05-23T20:20:17.475Z,18.56
2023-05-23T20:22:46.120Z,18.50
2023-05-23T20:25:15.240Z,18.50
2023-05-23T20:27:44.279Z,18.48
2023-05-23T20:30:14.644Z,18.49
2023-05-23T20:32:45.594Z,18.37
2023-05-23T20:35:16.105Z,18.40
2023-05-23T20:37:44.657Z,18.34
2023-05-23T20:40:14.388Z,18.37
2023-05-23T20:42:45.270Z,18.23
2023-05-23T20:45:15.568Z,18.23
2023-05-23T20:47:44.514Z,18.27
2023-05-23T20:50:15.320Z,18.21
2023-05-23T20:52:44.061Z,18.02
2023-05-23T20:55:14.325Z,18.01
2023-05-23T20:57:43.392Z,17.96
2023-05-23T21:00:14.487Z,17.89
2023-05-23T21:02:44.061Z,17.85
2023-05-23T21:05:13.297Z,17.75
2023-05-23T21:07:43.437Z,17.81
2023-05-23T21:10:12.926Z,17.73
2023-05-23T21:12:49.315Z,17.63
2023-05-23T21:15:18.738Z,17.60
2023-05-23T21:17:47.775Z,17.48
2023-05-23T21:20:17.296Z,17.36
2023-05-23T21:22:47.395Z,17.11
2023-05-23T21:25:16.523Z,17.02
2023-05-23T21:27:45.762Z,16.98
2023-05-23T21:30:16.098Z,16.93
2023-05-23T21:32:44.904Z,16.94
2023-05-23T21:35:14.007Z,16.89
2023-05-23T21:37:42.586Z,16.93
2023-05-23T21:40:13.870Z,16.90
2023-05-23T21:42:43.006Z,16.82
2023-05-23T21:45:12.623Z,16.83
2023-05-23T21:47:41.675Z,16.81
2023-05-23T21:50:12.133Z,16.76
2023-05-23T21:52:40.828Z,16.75
2023-05-23T21:55:09.978Z,16.73
2023-05-23T21:57:40.547Z,16.70
2023-05-23T22:00:12.846Z,16.69
2023-05-23T22:02:44.425Z,16.66
2023-05-23T22:05:13.765Z,16.62
2023-05-23T22:07:42.542Z,16.64
2023-05-23T22:10:12.083Z,16.64
2023-05-23T22:12:42.559Z,16.61
2023-05-23T22:15:13.344Z,16.57
2023-05-23T22:17:43.864Z,16.58
2023-05-23T22:20:14.853Z,16.57
2023-05-23T22:22:43.567Z,16.54
2023-05-23T22:25:12.695Z,16.54
2023-05-23T22:27:43.152Z,16.54
2023-05-23T22:30:13.067Z,16.48
2023-05-23T22:32:42.179Z,16.71
2023-05-23T22:35:11.530Z,16.87
2023-05-23T22:37:40.056Z,17.04
2023-05-23T22:40:11.250Z,17.07
2023-05-23T22:42:40.739Z,17.06
2023-05-23T22:45:12.147Z,17.03
2023-05-23T22:47:41.806Z,16.97
2023-05-23T22:50:11.995Z,16.98
2023-05-23T22:52:40.610Z,16.98
2023-05-23T22:55:10.364Z,16.93
2023-05-23T22:57:39.333Z,17.05
2023-05-23T23:00:11.950Z,17.02
2023-05-23T23:02:41.050Z,16.98
2023-05-23T23:05:12.320Z,16.99
2023-05-23T23:07:40.977Z,16.87
2023-05-23T23:10:11.051Z,16.93
2023-05-23T23:12:40.090Z,16.74
2023-05-23T23:15:11.357Z,16.87
2023-05-23T23:17:40.430Z,16.82
2023-05-23T23:20:12.644Z,16.74
2023-05-23T23:22:41.589Z,16.72
2023-05-23T23:25:12.266Z,16.47
2023-05-23T23:27:41.683Z,16.66
2023-05-23T23:30:12.985Z,16.68
2023-05-23T23:32:42.161Z,16.63
2023-05-23T23:35:11.423Z,16.63
2023-05-23T23:37:40.475Z,16.52
2023-05-23T23:40:10.864Z,16.53
2023-05-23T23:42:40.008Z,16.61
2023-05-23T23:45:09.956Z,16.60
2023-05-23T23:47:40.462Z,16.61
2023-05-23T23:50:10.351Z,16.53
2023-05-23T23:52:39.060Z,16.38
2023-05-23T23:55:08.798Z,16.45
2023-05-23T23:57:37.887Z,16.32
